Time;durP1;ratioP1;P1;durP2;ratioP2;P2;SDS_P1;SDS_P2;PMS_P1;PMS_P2;Temp;Humidity;BMP_temperature;BMP_pressure;BME280_temperature;BME280_humidity;BME280_pressure;Samples;Min_cycle;Max_cycle;Signal;HPM_P1;HPM_P2
2023/11/02 00:01:12;;;;;;;0.50;0.40;;;10.70;99.90;;;;;;5083793;28;20436;-81
2023/11/02 00:03:41;;;;;;;5.60;1.43;;;10.70;99.90;;;;;;5084019;28;20440;-80
2023/11/02 00:06:34;;;;;;;2.50;0.83;;;10.70;99.90;;;;;;5082867;28;20502;-80
2023/11/02 00:09:39;;;;;;;0.50;0.40;;;10.70;99.90;;;;;;5076854;28;20520;-80
2023/11/02 00:12:07;;;;;;;0.60;0.60;;;10.70;99.90;;;;;;5083149;28;20186;-80
2023/11/02 00:14:44;;;;;;;0.50;0.50;;;10.70;99.90;;;;;;5082617;28;20202;-81
2023/11/02 00:17:53;;;;;;;1.17;1.10;;;10.70;99.90;;;;;;5081700;28;20209;-78
2023/11/02 00:20:33;;;;;;;0.60;0.50;;;10.70;99.90;;;;;;5083607;28;20277;-81
2023/11/02 00:23:00;;;;;;;0.50;0.40;;;10.70;99.90;;;;;;5083202;28;20488;-81
2023/11/02 00:25:44;;;;;;;0.50;0.40;;;10.70;99.90;;;;;;5084383;28;20491;-80
2023/11/02 00:28:11;;;;;;;0.50;0.40;;;10.70;99.90;;;;;;5084106;28;20443;-81
2023/11/02 00:30:39;;;;;;;0.50;0.50;;;10.70;99.90;;;;;;5084359;28;20480;-80
2023/11/02 00:33:06;;;;;;;0.50;0.40;;;10.70;99.90;;;;;;5083386;28;20193;-80
2023/11/02 00:35:34;;;;;;;0.60;0.50;;;10.70;99.90;;;;;;5083948;28;20460;-80
2023/11/02 00:38:02;;;;;;;0.50;0.40;;;10.70;99.90;;;;;;5083987;28;20436;-80
2023/11/02 00:40:29;;;;;;;0.90;0.60;;;10.70;99.90;;;;;;5084646;28;20437;-79
2023/11/02 00:42:56;;;;;;;3.60;1.13;;;10.70;99.90;;;;;;5084538;28;20201;-81
2023/11/02 00:45:24;;;;;;;0.50;0.40;;;10.80;99.90;;;;;;5085490;28;20495;-80
2023/11/02 00:47:51;;;;;;;0.50;0.40;;;10.80;99.90;;;;;;5083924;28;20475;-81
2023/11/02 00:50:54;;;;;;;0.50;0.40;;;10.90;99.90;;;;;;5084236;28;20839;-82
2023/11/02 00:53:21;;;;;;;0.50;0.40;;;10.90;99.90;;;;;;5084370;28;20424;-81
2023/11/02 00:55:47;;;;;;;0.85;0.82;;;11.00;99.90;;;;;;5083909;28;20491;-79
2023/11/02 00:58:16;;;;;;;0.50;0.40;;;11.00;99.90;;;;;;5084384;28;20201;-80
2023/11/02 01:01:05;;;;;;;0.50;0.50;;;11.00;99.90;;;;;;5082911;28;20472;-81
2023/11/02 01:03:34;;;;;;;0.50;0.50;;;11.00;99.90;;;;;;5084022;28;20958;-80
2023/11/02 01:06:03;;;;;;;0.50;0.40;;;11.00;99.90;;;;;;5084916;28;20457;-79
2023/11/02 01:08:31;;;;;;;0.57;0.57;;;11.00;99.90;;;;;;5083625;28;20433;-80
2023/11/02 01:10:58;;;;;;;1.80;0.50;;;11.00;99.90;;;;;;5083520;28;20551;-80
2023/11/02 01:13:27;;;;;;;2.33;0.47;;;11.00;99.90;;;;;;5083171;28;20433;-80
2023/11/02 01:16:08;;;;;;;0.60;0.40;;;11.00;99.90;;;;;;5083763;28;20460;-80
2023/11/02 01:18:35;;;;;;;0.50;0.40;;;11.00;99.90;;;;;;5083531;28;20474;-81
2023/11/02 01:21:05;;;;;;;0.50;0.40;;;11.10;99.90;;;;;;5084555;28;20189;-81
2023/11/02 01:23:33;;;;;;;0.60;0.50;;;11.10;99.90;;;;;;5084381;28;20443;-80
2023/11/02 01:26:01;;;;;;;1.00;0.50;;;11.10;99.90;;;;;;5085219;28;20452;-80
2023/11/02 01:28:50;;;;;;;1.40;0.65;;;11.20;99.90;;;;;;5089289;28;20464;-81
2023/11/02 01:31:19;;;;;;;0.50;0.40;;;11.20;99.90;;;;;;5088961;28;20277;-80
2023/11/02 01:33:59;;;;;;;0.50;0.40;;;11.20;99.90;;;;;;5088019;28;20197;-80
2023/11/02 01:36:31;;;;;;;0.50;0.40;;;11.20;99.90;;;;;;5087710;28;20459;-81
2023/11/02 01:39:02;;;;;;;0.60;0.60;;;11.20;99.90;;;;;;5080068;28;20931;-80
2023/11/02 01:41:40;;;;;;;1.07;0.93;;;11.20;99.90;;;;;;5089019;28;20428;-81
2023/11/02 01:44:16;;;;;;;0.50;0.40;;;11.20;99.90;;;;;;5087693;28;20440;-80
2023/11/02 01:46:55;;;;;;;0.50;0.40;;;11.20;99.90;;;;;;5088012;28;20913;-80
2023/11/02 01:49:38;;;;;;;0.50;0.40;;;11.20;99.90;;;;;;5087885;28;20432;-81
2023/11/02 01:52:16;;;;;;;0.50;0.40;;;11.30;99.90;;;;;;5087591;28;20998;-81
2023/11/02 01:54:48;;;;;;;0.50;0.40;;;11.30;99.90;;;;;;5087727;28;20436;-79
2023/11/02 01:57:23;;;;;;;0.50;0.40;;;11.30;99.90;;;;;;5087571;28;20446;-80
2023/11/02 01:59:58;;;;;;;1.63;0.50;;;11.30;99.90;;;;;;5086196;28;20433;-78
2023/11/02 02:02:34;;;;;;;1.07;0.60;;;11.30;99.90;;;;;;5087993;28;20447;-79
2023/11/02 02:05:04;;;;;;;0.50;0.40;;;11.30;99.90;;;;;;5087294;28;20515;-80
2023/11/02 02:07:50;;;;;;;0.50;0.40;;;11.30;99.90;;;;;;5087213;28;20447;-80
2023/11/02 02:10:27;;;;;;;1.73;0.70;;;11.30;99.90;;;;;;5087842;28;20480;-81
2023/11/02 02:13:17;;;;;;;0.50;0.40;;;11.30;99.90;;;;;;5087781;28;20436;-80
2023/11/02 02:15:54;;;;;;;1.17;0.80;;;11.30;99.90;;;;;;5087349;28;20486;-80
2023/11/02 02:18:31;;;;;;;1.17;1.08;;;11.30;99.90;;;;;;5086546;28;20442;-80
2023/11/02 02:21:06;;;;;;;0.50;0.40;;;11.30;99.90;;;;;;5086826;28;20269;-79
2023/11/02 02:23:42;;;;;;;1.47;0.60;;;11.20;99.90;;;;;;5086578;28;20508;-80
2023/11/02 02:26:33;;;;;;;0.50;0.40;;;11.30;99.90;;;;;;5086863;28;20449;-80
2023/11/02 02:29:32;;;;;;;0.50;0.40;;;11.30;99.90;;;;;;5086245;28;20432;-80
2023/11/02 02:32:34;;;;;;;0.50;0.40;;;11.30;99.90;;;;;;5033143;28;20637;-81
2023/11/02 02:35:08;;;;;;;0.50;0.40;;;11.30;99.90;;;;;;5085923;28;20459;-81
2023/11/02 02:37:40;;;;;;;0.80;0.53;;;11.30;99.90;;;;;;5086129;28;20481;-81
2023/11/02 02:40:08;;;;;;;1.33;1.27;;;11.30;99.90;;;;;;5087057;28;20524;-81
2023/11/02 02:42:37;;;;;;;0.80;0.80;;;11.30;99.90;;;;;;5086382;28;20443;-81
2023/11/02 02:45:09;;;;;;;0.50;0.50;;;11.30;99.90;;;;;;5086504;28;20480;-81
2023/11/02 02:47:38;;;;;;;2.17;1.20;;;11.20;99.90;;;;;;5086638;28;20452;-80
2023/11/02 02:50:09;;;;;;;0.50;0.40;;;11.20;99.90;;;;;;5078773;28;20524;-81
2023/11/02 02:52:38;;;;;;;1.33;1.23;;;11.20;99.90;;;;;;5086040;28;20501;-81
2023/11/02 02:55:08;;;;;;;0.50;0.50;;;11.20;99.90;;;;;;5078424;28;20460;-80
2023/11/02 02:57:37;;;;;;;0.50;0.40;;;11.20;99.90;;;;;;5086588;28;20492;-81
2023/11/02 03:00:05;;;;;;;0.50;0.40;;;11.20;99.90;;;;;;5085652;28;20437;-80
2023/11/02 03:02:33;;;;;;;1.80;0.80;;;11.30;99.90;;;;;;5085456;28;20520;-80
2023/11/02 03:05:00;;;;;;;0.50;0.40;;;11.30;99.90;;;;;;5085597;28;20468;-80
2023/11/02 03:07:32;;;;;;;0.50;0.40;;;11.30;99.90;;;;;;5085455;28;20436;-81
2023/11/02 03:10:01;;;;;;;1.10;1.00;;;11.30;99.90;;;;;;5085284;28;20448;-80
2023/11/02 03:12:34;;;;;;;0.50;0.40;;;11.30;99.90;;;;;;5085563;28;20432;-81
2023/11/02 03:15:05;;;;;;;0.60;0.60;;;11.30;99.90;;;;;;5086076;28;20444;-80
2023/11/02 03:17:46;;;;;;;0.80;0.80;;;11.30;99.90;;;;;;5085953;28;20439;-80
2023/11/02 03:20:14;;;;;;;0.50;0.40;;;11.30;99.90;;;;;;5080008;22;20493;-82
2023/11/02 03:22:42;;;;;;;0.70;0.70;;;11.40;99.90;;;;;;5068152;28;20947;-81
2023/11/02 03:25:13;;;;;;;0.50;0.40;;;11.40;99.90;;;;;;5074597;28;20439;-83
2023/11/02 03:27:55;;;;;;;0.77;0.70;;;11.40;99.90;;;;;;5077192;28;20452;-82
2023/11/02 03:30:29;;;;;;;0.50;0.50;;;11.40;99.90;;;;;;5077381;28;20487;-83
2023/11/02 03:33:03;;;;;;;0.50;0.50;;;11.40;99.90;;;;;;5077239;28;20444;-82
2023/11/02 03:35:35;;;;;;;0.60;0.53;;;11.40;99.90;;;;;;5076670;28;20441;-82
2023/11/02 03:38:16;;;;;;;1.13;0.70;;;11.40;99.90;;;;;;5088314;28;20451;-82
2023/11/02 03:40:56;;;;;;;0.50;0.43;;;11.40;99.90;;;;;;5078385;28;20436;-84
2023/11/02 03:43:30;;;;;;;1.83;0.60;;;11.40;99.90;;;;;;5071935;28;20440;-82
2023/11/02 03:46:13;;;;;;;0.70;0.70;;;11.40;99.90;;;;;;5080768;28;20444;-83
2023/11/02 03:48:45;;;;;;;1.13;0.70;;;11.40;99.90;;;;;;5077790;28;20465;-82
2023/11/02 03:51:32;;;;;;;0.50;0.40;;;11.40;99.90;;;;;;5072078;28;21011;-82
2023/11/02 03:54:15;;;;;;;0.60;0.50;;;11.30;99.90;;;;;;5080197;28;20445;-82
2023/11/02 03:56:58;;;;;;;1.43;1.10;;;11.20;99.90;;;;;;5081769;28;20444;-83
2023/11/02 03:59:32;;;;;;;0.50;0.50;;;11.10;99.90;;;;;;5073676;28;20456;-83
2023/11/02 04:02:01;;;;;;;0.83;0.73;;;11.10;99.90;;;;;;5080957;28;20459;-82
2023/11/02 04:04:37;;;;;;;0.70;0.70;;;11.00;99.90;;;;;;5080699;28;20495;-83
2023/11/02 04:07:18;;;;;;;0.80;0.70;;;11.10;99.90;;;;;;5079744;28;20527;-83
2023/11/02 04:09:49;;;;;;;1.13;0.60;;;11.00;99.90;;;;;;5079990;28;20456;-83
2023/11/02 04:12:33;;;;;;;0.80;0.70;;;11.10;99.90;;;;;;5071902;28;20472;-83
2023/11/02 04:15:01;;;;;;;0.50;0.40;;;11.20;99.90;;;;;;5078462;28;20448;-83
2023/11/02 04:17:29;;;;;;;2.88;1.70;;;11.20;99.90;;;;;;5077986;28;20206;-83
2023/11/02 04:19:57;;;;;;;0.60;0.40;;;11.20;99.90;;;;;;5077760;28;20312;-83
2023/11/02 04:22:23;;;;;;;1.23;0.77;;;11.20;99.90;;;;;;5076173;28;20433;-82
2023/11/02 04:24:52;;;;;;;1.20;1.07;;;11.20;99.90;;;;;;5076623;28;20440;-82
2023/11/02 04:27:19;;;;;;;0.60;0.50;;;11.30;99.90;;;;;;5077539;28;21009;-82
2023/11/02 04:29:45;;;;;;;2.33;1.40;;;11.30;99.90;;;;;;5078131;28;20457;-83
2023/11/02 04:32:12;;;;;;;0.50;0.50;;;11.40;99.90;;;;;;5077310;28;20480;-82
2023/11/02 04:34:40;;;;;;;0.83;0.70;;;11.40;99.90;;;;;;5079061;28;20448;-83
2023/11/02 04:37:14;;;;;;;0.50;0.40;;;11.40;99.90;;;;;;5079945;28;20448;-83
2023/11/02 04:39:42;;;;;;;0.60;0.60;;;11.40;99.90;;;;;;5077047;28;20460;-83
2023/11/02 04:42:10;;;;;;;0.67;0.57;;;11.40;99.90;;;;;;5076203;28;20448;-82
2023/11/02 04:44:37;;;;;;;1.20;1.20;;;11.40;99.90;;;;;;5076986;28;20967;-83
2023/11/02 04:47:03;;;;;;;0.60;0.60;;;11.50;99.90;;;;;;5078341;28;20444;-82
2023/11/02 04:49:32;;;;;;;1.10;0.50;;;11.50;99.90;;;;;;5079298;28;20464;-83
2023/11/02 04:52:02;;;;;;;0.57;0.57;;;11.50;99.90;;;;;;5077775;28;20490;-83
2023/11/02 04:54:29;;;;;;;0.60;0.53;;;11.50;99.90;;;;;;5077450;28;20505;-82
2023/11/02 04:56:56;;;;;;;1.77;0.80;;;11.50;99.90;;;;;;5078994;28;20441;-83
2023/11/02 04:59:24;;;;;;;2.00;0.60;;;11.50;99.90;;;;;;5077244;28;20895;-82
2023/11/02 05:01:52;;;;;;;0.50;0.40;;;11.50;99.90;;;;;;5076466;28;20439;-80
2023/11/02 05:04:19;;;;;;;1.70;1.17;;;11.60;99.90;;;;;;5077511;28;20448;-82
2023/11/02 05:06:46;;;;;;;0.50;0.40;;;11.60;99.90;;;;;;5076524;28;20441;-82
2023/11/02 05:09:12;;;;;;;0.60;0.50;;;11.60;99.90;;;;;;5076931;28;20664;-83
2023/11/02 05:11:39;;;;;;;0.60;0.50;;;11.60;99.90;;;;;;5076999;28;20991;-82
2023/11/02 05:14:06;;;;;;;1.13;0.80;;;11.60;99.90;;;;;;5076464;28;20824;-82
2023/11/02 05:16:34;;;;;;;0.50;0.40;;;11.60;99.90;;;;;;5075751;28;20451;-82
2023/11/02 05:19:01;;;;;;;1.60;0.90;;;11.70;99.90;;;;;;5079609;28;20218;-82
2023/11/02 05:21:28;;;;;;;2.97;0.80;;;11.70;99.90;;;;;;5080235;28;20437;-81
2023/11/02 05:23:54;;;;;;;1.00;0.67;;;11.60;99.90;;;;;;5077134;28;20447;-84
2023/11/02 05:26:21;;;;;;;0.50;0.40;;;11.70;99.90;;;;;;5076609;28;20455;-83
2023/11/02 05:28:49;;;;;;;0.90;0.57;;;11.70;99.90;;;;;;5076380;28;20469;-83
2023/11/02 05:31:16;;;;;;;1.17;0.60;;;11.70;99.90;;;;;;5075531;28;20472;-83
2023/11/02 05:33:44;;;;;;;0.50;0.50;;;11.70;99.90;;;;;;5075960;28;20929;-83
2023/11/02 05:36:11;;;;;;;0.60;0.40;;;11.80;99.90;;;;;;5075044;28;20452;-82
2023/11/02 05:38:38;;;;;;;1.00;0.60;;;11.80;99.90;;;;;;5076254;28;20492;-83
2023/11/02 05:41:05;;;;;;;0.60;0.50;;;11.80;99.90;;;;;;5076745;28;20447;-83
2023/11/02 05:43:34;;;;;;;0.67;0.67;;;11.80;99.90;;;;;;5078073;28;20447;-83
2023/11/02 05:46:01;;;;;;;3.80;0.77;;;11.80;99.90;;;;;;5077592;28;20449;-82
2023/11/02 05:48:28;;;;;;;2.40;0.90;;;11.90;99.90;;;;;;5077718;28;20461;-83
2023/11/02 05:50:56;;;;;;;0.50;0.40;;;11.90;99.90;;;;;;5076707;28;20440;-82
2023/11/02 05:53:23;;;;;;;4.00;0.60;;;12.00;99.90;;;;;;5067961;28;20490;-83
2023/11/02 05:55:50;;;;;;;0.70;0.63;;;12.00;99.90;;;;;;5077205;28;20436;-82
2023/11/02 05:58:16;;;;;;;1.63;0.60;;;12.00;99.90;;;;;;5075972;28;20528;-83
2023/11/02 06:00:43;;;;;;;1.87;0.70;;;12.10;99.90;;;;;;5075785;28;20437;-83
2023/11/02 06:03:10;;;;;;;0.50;0.40;;;12.10;99.90;;;;;;5074764;28;20843;-83
2023/11/02 06:05:37;;;;;;;0.60;0.50;;;12.10;99.90;;;;;;5075820;28;20931;-83
2023/11/02 06:08:05;;;;;;;0.60;0.40;;;12.20;99.90;;;;;;5075826;28;20445;-84
2023/11/02 06:10:32;;;;;;;0.90;0.60;;;12.20;99.90;;;;;;5076142;28;20428;-83
2023/11/02 06:12:58;;;;;;;0.50;0.40;;;12.20;99.90;;;;;;5078089;28;21013;-82
2023/11/02 06:15:26;;;;;;;0.50;0.40;;;12.10;99.90;;;;;;5079842;28;20946;-83
2023/11/02 06:17:53;;;;;;;0.50;0.40;;;12.10;99.90;;;;;;5079496;28;20449;-83
2023/11/02 06:20:20;;;;;;;1.37;0.50;;;12.10;99.90;;;;;;5078635;28;20555;-83
2023/11/02 06:22:47;;;;;;;0.50;0.40;;;12.10;99.90;;;;;;5078570;28;20479;-83
2023/11/02 06:25:16;;;;;;;2.10;0.73;;;12.20;99.90;;;;;;5079385;28;20440;-83
2023/11/02 06:27:43;;;;;;;0.50;0.40;;;12.20;99.90;;;;;;5078249;28;20479;-82
2023/11/02 06:30:11;;;;;;;0.60;0.60;;;12.20;99.90;;;;;;5078067;28;20468;-82
2023/11/02 06:32:37;;;;;;;0.90;0.50;;;12.20;99.90;;;;;;5083484;28;20559;-84
2023/11/02 06:35:05;;;;;;;0.50;0.40;;;12.20;99.90;;;;;;5078789;28;20448;-84
2023/11/02 06:37:31;;;;;;;0.70;0.70;;;12.10;99.90;;;;;;5079402;28;20443;-83
2023/11/02 06:39:59;;;;;;;0.50;0.40;;;12.10;99.90;;;;;;5078457;28;20548;-82
2023/11/02 06:42:28;;;;;;;0.70;0.40;;;12.10;99.90;;;;;;5070084;28;20438;-83
2023/11/02 06:44:55;;;;;;;0.80;0.50;;;12.20;99.90;;;;;;5085076;28;20466;-83
2023/11/02 06:47:22;;;;;;;2.50;1.67;;;12.20;99.90;;;;;;5081013;28;20881;-82
2023/11/02 06:49:49;;;;;;;0.50;0.43;;;12.20;99.90;;;;;;5078228;28;20452;-83
2023/11/02 06:52:16;;;;;;;0.50;0.47;;;12.30;99.90;;;;;;5078181;28;20480;-83
2023/11/02 06:54:44;;;;;;;0.50;0.40;;;12.30;99.90;;;;;;5079434;28;20440;-82
2023/11/02 06:57:11;;;;;;;0.50;0.40;;;12.30;99.90;;;;;;5077913;28;20957;-82
2023/11/02 06:59:39;;;;;;;0.50;0.40;;;12.30;99.90;;;;;;5077660;28;20528;-83
2023/11/02 07:02:09;;;;;;;0.87;0.83;;;12.30;99.90;;;;;;5077563;28;20528;-83
2023/11/02 07:04:36;;;;;;;2.10;0.53;;;12.30;99.90;;;;;;5078631;28;20904;-83
2023/11/02 07:07:03;;;;;;;0.50;0.47;;;12.30;99.90;;;;;;5079464;28;20436;-82
2023/11/02 07:09:30;;;;;;;0.60;0.40;;;12.30;99.90;;;;;;5076939;28;20468;-83
2023/11/02 07:11:57;;;;;;;1.87;0.60;;;12.30;99.90;;;;;;5077499;28;20476;-83
2023/11/02 07:14:24;;;;;;;0.80;0.50;;;12.30;99.90;;;;;;5078060;28;21010;-82
2023/11/02 07:16:52;;;;;;;0.60;0.60;;;12.30;99.90;;;;;;5077748;28;20448;-83
2023/11/02 07:19:19;;;;;;;0.50;0.40;;;12.20;99.90;;;;;;5077446;28;20465;-82
2023/11/02 07:21:46;;;;;;;0.50;0.40;;;11.80;99.90;;;;;;5076998;28;20465;-82
2023/11/02 07:24:13;;;;;;;0.50;0.40;;;11.50;99.90;;;;;;5075450;28;20532;-82
2023/11/02 07:26:39;;;;;;;0.50;0.40;;;11.30;99.90;;;;;;5077425;28;20451;-82
2023/11/02 07:29:06;;;;;;;0.77;0.50;;;11.10;99.90;;;;;;5077376;28;20988;-83
2023/11/02 07:31:33;;;;;;;1.33;1.27;;;10.90;99.90;;;;;;5076953;28;20949;-83
2023/11/02 07:34:01;;;;;;;30.10;1.93;;;10.90;99.90;;;;;;5077237;28;20510;-84
2023/11/02 07:36:28;;;;;;;0.50;0.40;;;10.80;99.90;;;;;;5077145;28;20437;-83
2023/11/02 07:38:55;;;;;;;0.50;0.40;;;10.80;99.90;;;;;;5076597;28;20214;-84
2023/11/02 07:41:21;;;;;;;0.60;0.50;;;10.80;99.90;;;;;;5078042;28;20510;-82
2023/11/02 07:43:48;;;;;;;0.70;0.60;;;10.70;99.90;;;;;;5078069;28;20198;-84
2023/11/02 07:46:15;;;;;;;3.00;0.55;;;10.70;99.90;;;;;;5076467;28;20211;-83
2023/11/02 07:48:42;;;;;;;0.60;0.50;;;10.70;99.90;;;;;;5077298;28;20214;-82
2023/11/02 07:51:12;;;;;;;0.50;0.50;;;10.70;99.90;;;;;;5077690;28;20440;-82
2023/11/02 07:53:39;;;;;;;0.70;0.60;;;10.70;99.90;;;;;;5077314;28;20491;-83
2023/11/02 07:56:08;;;;;;;0.80;0.57;;;10.80;99.90;;;;;;5077144;28;20277;-83
2023/11/02 07:58:36;;;;;;;1.77;0.50;;;10.80;99.90;;;;;;5069558;28;20736;-83
2023/11/02 08:01:03;;;;;;;0.60;0.50;;;10.80;99.90;;;;;;5077545;28;20453;-83
2023/11/02 08:03:30;;;;;;;0.50;0.40;;;10.90;99.90;;;;;;5076622;28;20505;-84
2023/11/02 08:05:57;;;;;;;1.23;0.60;;;10.90;99.90;;;;;;5076727;28;20486;-84
2023/11/02 08:08:25;;;;;;;0.50;0.43;;;11.00;99.90;;;;;;5076804;28;20451;-83
2023/11/02 08:10:51;;;;;;;0.60;0.50;;;11.10;99.90;;;;;;5077297;28;20811;-84
2023/11/02 08:13:18;;;;;;;0.70;0.70;;;11.10;99.90;;;;;;5076246;28;20222;-83
2023/11/02 08:15:45;;;;;;;0.90;0.50;;;11.10;99.90;;;;;;5076999;28;20441;-83
2023/11/02 08:18:12;;;;;;;0.60;0.50;;;11.20;99.90;;;;;;5076549;28;20752;-84
2023/11/02 08:20:39;;;;;;;0.70;0.60;;;11.20;99.90;;;;;;5076867;28;20467;-83
2023/11/02 08:23:06;;;;;;;1.13;0.60;;;11.30;99.90;;;;;;5076832;28;20443;-83
2023/11/02 08:25:34;;;;;;;0.50;0.50;;;11.30;99.90;;;;;;5076951;28;20432;-84
2023/11/02 08:28:01;;;;;;;1.90;0.50;;;11.40;99.90;;;;;;5088136;28;20429;-83
2023/11/02 08:30:29;;;;;;;0.50;0.50;;;11.40;99.90;;;;;;5088996;28;20672;-82
2023/11/02 08:32:56;;;;;;;1.20;0.60;;;11.50;99.90;;;;;;5083897;28;20468;-83
2023/11/02 08:35:23;;;;;;;0.50;0.50;;;11.60;99.90;;;;;;5086861;28;20445;-83
2023/11/02 08:37:50;;;;;;;0.50;0.50;;;11.60;99.90;;;;;;5083953;28;20523;-84
2023/11/02 08:40:18;;;;;;;1.27;0.90;;;11.60;99.90;;;;;;5077218;28;20457;-84
2023/11/02 08:42:46;;;;;;;0.80;0.67;;;11.70;99.90;;;;;;5077046;28;20453;-84
2023/11/02 08:45:13;;;;;;;0.50;0.40;;;11.80;99.90;;;;;;5077239;28;20448;-83
2023/11/02 08:47:40;;;;;;;0.60;0.43;;;11.80;99.90;;;;;;5076806;28;20452;-83
2023/11/02 08:50:09;;;;;;;0.87;0.73;;;11.90;99.90;;;;;;5077340;28;20444;-84
2023/11/02 08:52:35;;;;;;;0.90;0.60;;;12.00;99.90;;;;;;5076790;28;20516;-83
2023/11/02 08:55:03;;;;;;;1.27;0.50;;;12.00;99.90;;;;;;5087823;28;20463;-82
2023/11/02 08:57:30;;;;;;;0.50;0.50;;;12.10;99.90;;;;;;5088975;28;20437;-83
2023/11/02 08:59:58;;;;;;;0.50;0.40;;;12.10;99.90;;;;;;5086016;28;20456;-82
2023/11/02 09:02:25;;;;;;;1.17;0.50;;;12.10;99.90;;;;;;5088196;28;20503;-83
2023/11/02 09:04:52;;;;;;;4.00;0.63;;;12.20;99.90;;;;;;5087942;28;20459;-82
2023/11/02 09:07:19;;;;;;;0.50;0.40;;;12.30;99.90;;;;;;5087923;28;20533;-83
2023/11/02 09:09:45;;;;;;;2.67;0.50;;;12.20;99.90;;;;;;5087482;28;20512;-83
2023/11/02 09:12:12;;;;;;;0.80;0.60;;;12.20;99.90;;;;;;5087172;28;20979;-83
2023/11/02 09:14:39;;;;;;;2.30;1.53;;;12.20;99.90;;;;;;5089413;28;20448;-82
2023/11/02 09:17:07;;;;;;;0.50;0.40;;;12.20;99.90;;;;;;5087408;28;20468;-82
2023/11/02 09:19:34;;;;;;;0.50;0.40;;;12.20;99.90;;;;;;5088707;28;20464;-82
2023/11/02 09:22:01;;;;;;;0.90;0.70;;;12.20;99.90;;;;;;5084167;28;20551;-83
2023/11/02 09:24:27;;;;;;;0.50;0.40;;;12.20;99.90;;;;;;5086719;28;20433;-82
2023/11/02 09:26:54;;;;;;;0.50;0.40;;;12.20;99.90;;;;;;5087734;22;20511;-80
2023/11/02 09:29:21;;;;;;;0.50;0.50;;;12.30;99.90;;;;;;5073537;28;20539;-81
2023/11/02 09:31:48;;;;;;;0.50;0.40;;;12.30;99.90;;;;;;5069065;28;20445;-80
2023/11/02 09:34:16;;;;;;;0.70;0.47;;;12.40;99.90;;;;;;5068343;28;20484;-81
2023/11/02 09:36:44;;;;;;;1.30;0.60;;;12.50;99.90;;;;;;5067591;28;20497;-80
2023/11/02 09:39:11;;;;;;;0.60;0.50;;;12.50;99.90;;;;;;5069220;28;20945;-80
2023/11/02 09:41:37;;;;;;;0.50;0.40;;;12.60;99.90;;;;;;5073293;28;20468;-80
2023/11/02 09:44:06;;;;;;;2.63;0.60;;;12.60;99.90;;;;;;5072432;28;20440;-82
2023/11/02 09:46:34;;;;;;;0.80;0.60;;;12.70;99.90;;;;;;5069484;28;20465;-80
2023/11/02 09:49:01;;;;;;;0.80;0.63;;;12.70;99.90;;;;;;5072450;28;20446;-80
2023/11/02 09:51:29;;;;;;;0.67;0.67;;;12.80;99.90;;;;;;5073623;28;20492;-80
2023/11/02 09:53:58;;;;;;;1.80;0.70;;;12.80;99.90;;;;;;5074790;28;20487;-77
2023/11/02 09:56:26;;;;;;;0.50;0.40;;;12.90;99.90;;;;;;5072796;28;20521;-81
2023/11/02 09:58:54;;;;;;;0.50;0.40;;;12.90;99.90;;;;;;5071075;28;21025;-81
2023/11/02 10:01:22;;;;;;;2.07;0.63;;;13.00;99.90;;;;;;5070734;28;20445;-80
2023/11/02 10:03:48;;;;;;;0.60;0.50;;;13.00;99.90;;;;;;5078272;28;21016;-79
2023/11/02 10:06:16;;;;;;;0.50;0.40;;;13.10;99.90;;;;;;5069855;28;20469;-81
2023/11/02 10:08:44;;;;;;;0.50;0.40;;;13.20;99.90;;;;;;5072906;28;20436;-79
2023/11/02 10:11:12;;;;;;;0.63;0.50;;;13.30;99.90;;;;;;5073636;28;20451;-80
2023/11/02 10:13:38;;;;;;;10.60;1.03;;;13.30;99.90;;;;;;5070593;28;20987;-81
2023/11/02 10:16:06;;;;;;;0.53;0.43;;;13.30;99.90;;;;;;5069770;28;20468;-80
2023/11/02 10:18:33;;;;;;;0.50;0.40;;;13.40;99.90;;;;;;5070466;28;20532;-81
2023/11/02 10:21:03;;;;;;;0.50;0.40;;;13.40;99.90;;;;;;5071916;28;20444;-81
2023/11/02 10:23:49;;;;;;;0.50;0.40;;;13.60;99.90;;;;;;5069741;28;20819;-80
2023/11/02 10:26:16;;;;;;;0.60;0.60;;;13.50;99.90;;;;;;5069687;28;20471;-81
2023/11/02 10:28:43;;;;;;;3.13;0.50;;;13.50;99.90;;;;;;5071979;28;20437;-80
2023/11/02 10:31:10;;;;;;;0.53;0.50;;;13.60;99.90;;;;;;5074158;28;20440;-80
2023/11/02 10:33:37;;;;;;;0.60;0.50;;;13.50;99.90;;;;;;5070984;28;20495;-80
2023/11/02 10:36:06;;;;;;;1.07;0.60;;;13.60;99.90;;;;;;5073311;28;20512;-82
2023/11/02 10:38:33;;;;;;;0.50;0.40;;;13.70;99.90;;;;;;5070526;28;20436;-81
2023/11/02 10:41:02;;;;;;;0.50;0.50;;;13.70;99.90;;;;;;5066022;28;20439;-81
2023/11/02 10:43:30;;;;;;;4.20;0.73;;;13.70;99.90;;;;;;5072620;28;20437;-79
2023/11/02 10:45:57;;;;;;;1.33;0.50;;;13.80;99.90;;;;;;5069257;28;20491;-82
2023/11/02 10:48:28;;;;;;;1.10;0.77;;;13.90;99.90;;;;;;5069388;28;20438;-79
2023/11/02 10:50:57;;;;;;;0.90;0.60;;;14.00;99.90;;;;;;5073682;28;20432;-80
2023/11/02 10:53:35;;;;;;;0.50;0.40;;;14.00;99.90;;;;;;5073221;28;20522;-78
2023/11/02 10:56:09;;;;;;;0.60;0.40;;;14.00;99.90;;;;;;5071598;28;20437;-80
2023/11/02 10:58:37;;;;;;;0.50;0.40;;;14.00;99.90;;;;;;5071036;28;20441;-83
2023/11/02 11:01:05;;;;;;;2.10;0.90;;;14.10;99.90;;;;;;5072678;28;20433;-80
2023/11/02 11:03:32;;;;;;;0.50;0.50;;;14.10;99.90;;;;;;5073167;28;20433;-80
2023/11/02 11:06:00;;;;;;;1.20;0.90;;;14.20;99.90;;;;;;5070904;28;20547;-81
2023/11/02 11:08:27;;;;;;;0.80;0.40;;;14.30;99.90;;;;;;5071547;28;20426;-80
2023/11/02 11:10:55;;;;;;;2.83;0.53;;;14.30;99.90;;;;;;5074243;28;20444;-77
2023/11/02 11:13:25;;;;;;;0.60;0.57;;;14.40;99.90;;;;;;5074527;28;20473;-81
2023/11/02 11:15:53;;;;;;;0.50;0.50;;;14.50;99.90;;;;;;5063033;28;20928;-80
2023/11/02 11:18:23;;;;;;;0.50;0.40;;;14.60;99.90;;;;;;5071425;28;20445;-81
2023/11/02 11:20:50;;;;;;;0.50;0.40;;;14.60;99.90;;;;;;5073956;28;20889;-79
2023/11/02 11:23:17;;;;;;;1.30;0.70;;;14.60;99.90;;;;;;5075716;28;20508;-80
2023/11/02 11:25:57;;;;;;;0.50;0.40;;;14.60;99.90;;;;;;5073715;28;20585;-79
2023/11/02 11:28:33;;;;;;;0.50;0.50;;;14.60;99.90;;;;;;5072061;28;20529;-81
2023/11/02 11:31:00;;;;;;;3.00;1.00;;;14.60;99.90;;;;;;5064731;28;20491;-81
2023/11/02 11:33:49;;;;;;;0.93;0.67;;;14.50;99.90;;;;;;5071972;28;20479;-80
2023/11/02 11:36:20;;;;;;;0.70;0.40;;;14.70;99.90;;;;;;5067461;28;20472;-81
2023/11/02 11:38:46;;;;;;;2.00;0.70;;;14.80;99.90;;;;;;5073076;28;20438;-81
2023/11/02 11:41:43;;;;;;;2.73;0.50;;;14.80;99.90;;;;;;5084488;28;20440;-80
2023/11/02 11:44:19;;;;;;;1.00;0.60;;;15.00;99.90;;;;;;5078799;28;20444;-81
2023/11/02 11:46:46;;;;;;;0.77;0.73;;;15.20;99.90;;;;;;5075004;28;20521;-79
2023/11/02 11:49:47;;;;;;;0.77;0.60;;;15.30;99.90;;;;;;5073451;28;20512;-80
2023/11/02 11:52:23;;;;;;;1.53;0.60;;;15.30;99.90;;;;;;5062598;28;20535;-81
2023/11/02 11:54:50;;;;;;;1.10;0.60;;;15.30;99.90;;;;;;5072116;28;20848;-81
2023/11/02 11:57:51;;;;;;;0.50;0.50;;;15.30;99.90;;;;;;5066309;28;21166;-80
2023/11/02 12:00:21;;;;;;;7.30;0.70;;;15.10;99.90;;;;;;5061240;28;20928;-80
2023/11/02 12:02:52;;;;;;;1.27;1.03;;;15.10;99.90;;;;;;5067898;28;20631;-80
2023/11/02 12:05:53;;;;;;;0.70;0.60;;;15.00;99.90;;;;;;5069618;28;20436;-81
2023/11/02 12:08:21;;;;;;;12.00;0.90;;;14.90;99.90;;;;;;5070660;28;20437;-80
2023/11/02 12:10:51;;;;;;;4.33;0.77;;;14.80;99.90;;;;;;5062993;28;20437;-79
2023/11/02 12:13:18;;;;;;;0.50;0.40;;;14.70;99.90;;;;;;5071041;28;20484;-81
2023/11/02 12:16:00;;;;;;;2.13;1.50;;;14.70;99.90;;;;;;5069720;28;20456;-79
2023/11/02 12:18:29;;;;;;;1.80;1.37;;;14.60;99.90;;;;;;5067497;28;20509;-80
2023/11/02 12:20:57;;;;;;;0.97;0.90;;;14.60;99.90;;;;;;5069556;28;20432;-81
2023/11/02 12:23:38;;;;;;;0.83;0.73;;;14.60;99.90;;;;;;5070758;28;20429;-80
2023/11/02 12:26:06;;;;;;;0.60;0.60;;;14.70;99.90;;;;;;5059400;28;20880;-80
2023/11/02 12:28:44;;;;;;;0.70;0.60;;;14.80;99.90;;;;;;5066059;28;20446;-81
2023/11/02 12:31:12;;;;;;;0.80;0.40;;;14.80;99.90;;;;;;5060230;28;20436;-80
2023/11/02 12:33:39;;;;;;;1.17;0.50;;;14.90;99.90;;;;;;5067543;28;20485;-81
2023/11/02 12:36:07;;;;;;;0.50;0.40;;;15.00;99.90;;;;;;5070854;28;20492;-80
2023/11/02 12:38:41;;;;;;;2.80;1.50;;;15.00;99.90;;;;;;5069771;28;20440;-78
2023/11/02 12:41:07;;;;;;;0.50;0.40;;;14.90;99.90;;;;;;5066593;28;20516;-80
2023/11/02 12:43:36;;;;;;;1.63;0.60;;;14.90;99.90;;;;;;5067051;28;20433;-80
2023/11/02 12:46:06;;;;;;;0.60;0.40;;;14.80;99.90;;;;;;5074004;28;20433;-80
2023/11/02 12:48:37;;;;;;;0.50;0.40;;;14.90;99.90;;;;;;5074694;28;20923;-80
2023/11/02 12:51:18;;;;;;;2.43;0.60;;;15.00;99.90;;;;;;5063497;28;20437;-81
2023/11/02 12:53:46;;;;;;;0.80;0.80;;;15.10;99.90;;;;;;5070752;28;20476;-81
2023/11/02 12:56:19;;;;;;;0.90;0.53;;;15.10;99.90;;;;;;5074305;28;20547;-81
2023/11/02 12:58:46;;;;;;;7.07;1.20;;;15.10;99.90;;;;;;5075204;28;20874;-80
2023/11/02 13:01:14;;;;;;;0.50;0.40;;;15.20;99.90;;;;;;5074146;28;20529;-81
2023/11/02 13:04:03;;;;;;;0.70;0.63;;;15.30;99.90;;;;;;5072835;28;20437;-82